sensor_id;sensor_type;location;lat;lon;timestamp;P1;durP1;ratioP1;P2;durP2;ratioP2
39454;SDS011;25155;41.890;23.446;2024-02-23T00:00:08;13.80;;;9.73;;
39454;SDS011;25155;41.890;23.446;2024-02-23T00:02:38;13.95;;;9.23;;
39454;SDS011;25155;41.890;23.446;2024-02-23T00:05:05;10.75;;;8.02;;
39454;SDS011;25155;41.890;23.446;2024-02-23T00:07:33;9.55;;;6.78;;
39454;SDS011;25155;41.890;23.446;2024-02-23T00:10:02;12.02;;;8.07;;
39454;SDS011;25155;41.890;23.446;2024-02-23T00:12:29;9.93;;;7.28;;
39454;SDS011;25155;41.890;23.446;2024-02-23T00:14:57;10.73;;;7.55;;
39454;SDS011;25155;41.890;23.446;2024-02-23T00:17:24;14.38;;;9.35;;
39454;SDS011;25155;41.890;23.446;2024-02-23T00:19:51;16.23;;;12.20;;
39454;SDS011;25155;41.890;23.446;2024-02-23T00:22:19;14.20;;;10.15;;
39454;SDS011;25155;41.890;23.446;2024-02-23T00:24:47;12.10;;;8.20;;
39454;SDS011;25155;41.890;23.446;2024-02-23T00:27:16;12.73;;;8.52;;
39454;SDS011;25155;41.890;23.446;2024-02-23T00:29:43;13.60;;;9.48;;
39454;SDS011;25155;41.890;23.446;2024-02-23T00:32:10;12.43;;;8.90;;
39454;SDS011;25155;41.890;23.446;2024-02-23T00:34:38;9.70;;;6.70;;
39454;SDS011;25155;41.890;23.446;2024-02-23T00:37:05;10.10;;;7.07;;
39454;SDS011;25155;41.890;23.446;2024-02-23T00:39:33;10.10;;;7.80;;
39454;SDS011;25155;41.890;23.446;2024-02-23T00:42:03;11.80;;;8.73;;
39454;SDS011;25155;41.890;23.446;2024-02-23T00:44:31;12.27;;;8.07;;
39454;SDS011;25155;41.890;23.446;2024-02-23T00:46:58;9.43;;;6.75;;
39454;SDS011;25155;41.890;23.446;2024-02-23T00:49:27;12.15;;;8.48;;
39454;SDS011;25155;41.890;23.446;2024-02-23T00:51:55;13.85;;;9.30;;
39454;SDS011;25155;41.890;23.446;2024-02-23T00:54:22;10.45;;;7.63;;
39454;SDS011;25155;41.890;23.446;2024-02-23T00:56:49;16.33;;;11.98;;
39454;SDS011;25155;41.890;23.446;2024-02-23T00:59:17;12.55;;;9.38;;
39454;SDS011;25155;41.890;23.446;2024-02-23T01:01:48;14.73;;;10.88;;
39454;SDS011;25155;41.890;23.446;2024-02-23T01:04:15;17.30;;;11.88;;
39454;SDS011;25155;41.890;23.446;2024-02-23T01:06:42;13.70;;;9.93;;
39454;SDS011;25155;41.890;23.446;2024-02-23T01:09:09;12.10;;;9.15;;
39454;SDS011;25155;41.890;23.446;2024-02-23T01:11:36;12.10;;;8.25;;
39454;SDS011;25155;41.890;23.446;2024-02-23T01:14:04;15.18;;;10.98;;
39454;SDS011;25155;41.890;23.446;2024-02-23T01:16:32;14.75;;;10.65;;
39454;SDS011;25155;41.890;23.446;2024-02-23T01:19:01;13.15;;;8.85;;
39454;SDS011;25155;41.890;23.446;2024-02-23T01:21:28;13.73;;;9.27;;
39454;SDS011;25155;41.890;23.446;2024-02-23T01:23:56;12.18;;;8.55;;
39454;SDS011;25155;41.890;23.446;2024-02-23T01:26:26;24.00;;;15.38;;
39454;SDS011;25155;41.890;23.446;2024-02-23T01:28:54;17.55;;;12.10;;
39454;SDS011;25155;41.890;23.446;2024-02-23T01:31:22;13.63;;;9.80;;
39454;SDS011;25155;41.890;23.446;2024-02-23T01:33:49;15.38;;;10.85;;
39454;SDS011;25155;41.890;23.446;2024-02-23T01:36:18;14.25;;;9.98;;
39454;SDS011;25155;41.890;23.446;2024-02-23T01:38:45;11.85;;;9.25;;
39454;SDS011;25155;41.890;23.446;2024-02-23T01:41:12;16.17;;;11.15;;
39454;SDS011;25155;41.890;23.446;2024-02-23T01:43:39;19.00;;;12.95;;
39454;SDS011;25155;41.890;23.446;2024-02-23T01:46:07;15.85;;;10.63;;
39454;SDS011;25155;41.890;23.446;2024-02-23T01:48:35;11.48;;;8.27;;
39454;SDS011;25155;41.890;23.446;2024-02-23T01:51:03;11.65;;;8.40;;
39454;SDS011;25155;41.890;23.446;2024-02-23T01:53:32;12.52;;;8.60;;
39454;SDS011;25155;41.890;23.446;2024-02-23T01:55:59;12.40;;;9.13;;
39454;SDS011;25155;41.890;23.446;2024-02-23T01:58:27;13.15;;;9.57;;
39454;SDS011;25155;41.890;23.446;2024-02-23T02:00:55;15.55;;;10.88;;
39454;SDS011;25155;41.890;23.446;2024-02-23T02:03:22;15.65;;;11.00;;
39454;SDS011;25155;41.890;23.446;2024-02-23T02:05:50;19.45;;;13.63;;
39454;SDS011;25155;41.890;23.446;2024-02-23T02:08:17;18.23;;;13.45;;
39454;SDS011;25155;41.890;23.446;2024-02-23T02:10:46;14.80;;;10.45;;
39454;SDS011;25155;41.890;23.446;2024-02-23T02:13:14;14.40;;;9.82;;
39454;SDS011;25155;41.890;23.446;2024-02-23T02:15:42;18.23;;;13.25;;
39454;SDS011;25155;41.890;23.446;2024-02-23T02:18:09;17.70;;;12.50;;
39454;SDS011;25155;41.890;23.446;2024-02-23T02:20:37;16.05;;;11.00;;
39454;SDS011;25155;41.890;23.446;2024-02-23T02:23:16;18.02;;;11.20;;
39454;SDS011;25155;41.890;23.446;2024-02-23T02:25:43;14.43;;;9.93;;
39454;SDS011;25155;41.890;23.446;2024-02-23T02:28:11;15.57;;;12.00;;
39454;SDS011;25155;41.890;23.446;2024-02-23T02:30:39;16.88;;;12.93;;
39454;SDS011;25155;41.890;23.446;2024-02-23T02:33:06;17.42;;;11.95;;
39454;SDS011;25155;41.890;23.446;2024-02-23T02:35:33;19.20;;;13.20;;
39454;SDS011;25155;41.890;23.446;2024-02-23T02:38:00;14.73;;;10.20;;
39454;SDS011;25155;41.890;23.446;2024-02-23T02:40:28;12.00;;;8.65;;
39454;SDS011;25155;41.890;23.446;2024-02-23T02:42:56;12.77;;;9.05;;
39454;SDS011;25155;41.890;23.446;2024-02-23T02:45:25;12.00;;;8.50;;
39454;SDS011;25155;41.890;23.446;2024-02-23T02:47:52;10.73;;;7.70;;
39454;SDS011;25155;41.890;23.446;2024-02-23T02:50:19;11.13;;;7.53;;
39454;SDS011;25155;41.890;23.446;2024-02-23T02:52:47;15.20;;;10.80;;
39454;SDS011;25155;41.890;23.446;2024-02-23T02:55:14;15.95;;;11.70;;
39454;SDS011;25155;41.890;23.446;2024-02-23T02:57:43;14.38;;;9.98;;
39454;SDS011;25155;41.890;23.446;2024-02-23T03:00:11;12.90;;;9.57;;
39454;SDS011;25155;41.890;23.446;2024-02-23T03:02:40;11.48;;;8.50;;
39454;SDS011;25155;41.890;23.446;2024-02-23T03:05:07;11.70;;;8.18;;
39454;SDS011;25155;41.890;23.446;2024-02-23T03:07:35;11.25;;;8.30;;
39454;SDS011;25155;41.890;23.446;2024-02-23T03:10:02;17.83;;;12.88;;
39454;SDS011;25155;41.890;23.446;2024-02-23T03:12:30;15.25;;;10.95;;
39454;SDS011;25155;41.890;23.446;2024-02-23T03:14:57;14.18;;;9.95;;
39454;SDS011;25155;41.890;23.446;2024-02-23T03:17:25;12.88;;;8.75;;
39454;SDS011;25155;41.890;23.446;2024-02-23T03:19:54;11.30;;;8.27;;
39454;SDS011;25155;41.890;23.446;2024-02-23T03:22:21;11.27;;;8.13;;
39454;SDS011;25155;41.890;23.446;2024-02-23T03:24:48;9.63;;;6.82;;
39454;SDS011;25155;41.890;23.446;2024-02-23T03:27:16;11.13;;;7.80;;
39454;SDS011;25155;41.890;23.446;2024-02-23T03:29:43;12.05;;;8.38;;
39454;SDS011;25155;41.890;23.446;2024-02-23T03:32:10;10.23;;;7.38;;
39454;SDS011;25155;41.890;23.446;2024-02-23T03:34:37;8.82;;;6.55;;
39454;SDS011;25155;41.890;23.446;2024-02-23T03:37:06;11.07;;;8.35;;
39454;SDS011;25155;41.890;23.446;2024-02-23T03:39:33;14.75;;;11.05;;
39454;SDS011;25155;41.890;23.446;2024-02-23T03:42:03;13.57;;;9.88;;
39454;SDS011;25155;41.890;23.446;2024-02-23T03:44:30;17.38;;;13.00;;
39454;SDS011;25155;41.890;23.446;2024-02-23T03:46:58;15.40;;;11.02;;
39454;SDS011;25155;41.890;23.446;2024-02-23T03:49:25;13.88;;;9.75;;
39454;SDS011;25155;41.890;23.446;2024-02-23T03:51:52;11.95;;;8.38;;
39454;SDS011;25155;41.890;23.446;2024-02-23T03:54:21;13.38;;;9.35;;
39454;SDS011;25155;41.890;23.446;2024-02-23T03:56:48;11.45;;;8.02;;
39454;SDS011;25155;41.890;23.446;2024-02-23T03:59:15;14.98;;;11.13;;
39454;SDS011;25155;41.890;23.446;2024-02-23T04:01:42;21.42;;;15.38;;
39454;SDS011;25155;41.890;23.446;2024-02-23T04:04:10;22.23;;;14.52;;
39454;SDS011;25155;41.890;23.446;2024-02-23T04:06:37;15.77;;;12.15;;
39454;SDS011;25155;41.890;23.446;2024-02-23T04:09:04;16.08;;;11.25;;
39454;SDS011;25155;41.890;23.446;2024-02-23T04:11:35;14.13;;;10.95;;
39454;SDS011;25155;41.890;23.446;2024-02-23T04:14:02;16.67;;;12.77;;
39454;SDS011;25155;41.890;23.446;2024-02-23T04:16:30;15.88;;;11.82;;
39454;SDS011;25155;41.890;23.446;2024-02-23T04:18:58;13.77;;;10.52;;
39454;SDS011;25155;41.890;23.446;2024-02-23T04:21:25;13.88;;;9.70;;
39454;SDS011;25155;41.890;23.446;2024-02-23T04:23:53;14.32;;;9.30;;
39454;SDS011;25155;41.890;23.446;2024-02-23T04:26:20;13.07;;;9.13;;
39454;SDS011;25155;41.890;23.446;2024-02-23T04:28:49;14.82;;;10.65;;
39454;SDS011;25155;41.890;23.446;2024-02-23T04:31:16;14.73;;;10.18;;
39454;SDS011;25155;41.890;23.446;2024-02-23T04:33:43;11.63;;;8.40;;
39454;SDS011;25155;41.890;23.446;2024-02-23T04:36:11;11.75;;;8.43;;
39454;SDS011;25155;41.890;23.446;2024-02-23T04:38:38;13.05;;;9.15;;
39454;SDS011;25155;41.890;23.446;2024-02-23T04:41:06;16.35;;;10.77;;
39454;SDS011;25155;41.890;23.446;2024-02-23T04:43:34;15.75;;;10.43;;
39454;SDS011;25155;41.890;23.446;2024-02-23T04:46:03;16.17;;;11.48;;
39454;SDS011;25155;41.890;23.446;2024-02-23T04:48:30;14.30;;;10.32;;
39454;SDS011;25155;41.890;23.446;2024-02-23T04:50:57;19.98;;;13.60;;
39454;SDS011;25155;41.890;23.446;2024-02-23T04:53:24;18.95;;;13.77;;
39454;SDS011;25155;41.890;23.446;2024-02-23T04:55:52;16.48;;;11.43;;
39454;SDS011;25155;41.890;23.446;2024-02-23T04:58:19;17.05;;;11.95;;
39454;SDS011;25155;41.890;23.446;2024-02-23T05:00:47;14.10;;;10.30;;
39454;SDS011;25155;41.890;23.446;2024-02-23T05:03:16;17.48;;;12.48;;
39454;SDS011;25155;41.890;23.446;2024-02-23T05:05:43;15.20;;;11.20;;
39454;SDS011;25155;41.890;23.446;2024-02-23T05:08:10;14.23;;;9.48;;
39454;SDS011;25155;41.890;23.446;2024-02-23T05:10:38;12.00;;;9.30;;
39454;SDS011;25155;41.890;23.446;2024-02-23T05:13:05;10.40;;;7.68;;
39454;SDS011;25155;41.890;23.446;2024-02-23T05:15:32;11.55;;;7.93;;
39454;SDS011;25155;41.890;23.446;2024-02-23T05:17:59;14.05;;;9.75;;
39454;SDS011;25155;41.890;23.446;2024-02-23T05:20:28;12.15;;;8.82;;
39454;SDS011;25155;41.890;23.446;2024-02-23T05:22:55;13.80;;;9.15;;
39454;SDS011;25155;41.890;23.446;2024-02-23T05:25:22;12.98;;;9.02;;
39454;SDS011;25155;41.890;23.446;2024-02-23T05:27:51;12.85;;;8.73;;
39454;SDS011;25155;41.890;23.446;2024-02-23T05:30:19;17.25;;;11.05;;
39454;SDS011;25155;41.890;23.446;2024-02-23T05:32:46;13.45;;;9.75;;
39454;SDS011;25155;41.890;23.446;2024-02-23T05:35:14;15.88;;;9.80;;
39454;SDS011;25155;41.890;23.446;2024-02-23T05:37:43;14.05;;;10.05;;
39454;SDS011;25155;41.890;23.446;2024-02-23T05:40:11;16.75;;;10.35;;
39454;SDS011;25155;41.890;23.446;2024-02-23T05:42:38;14.55;;;10.48;;
39454;SDS011;25155;41.890;23.446;2024-02-23T05:45:06;13.77;;;10.27;;
39454;SDS011;25155;41.890;23.446;2024-02-23T05:47:35;16.58;;;11.68;;
39454;SDS011;25155;41.890;23.446;2024-02-23T05:50:03;12.20;;;9.23;;
39454;SDS011;25155;41.890;23.446;2024-02-23T05:52:31;18.27;;;13.00;;
39454;SDS011;25155;41.890;23.446;2024-02-23T05:55:00;18.67;;;13.07;;
39454;SDS011;25155;41.890;23.446;2024-02-23T05:57:28;15.90;;;10.82;;
39454;SDS011;25155;41.890;23.446;2024-02-23T05:59:55;15.25;;;11.05;;
39454;SDS011;25155;41.890;23.446;2024-02-23T06:02:22;16.88;;;11.40;;
39454;SDS011;25155;41.890;23.446;2024-02-23T06:04:49;19.92;;;14.10;;
39454;SDS011;25155;41.890;23.446;2024-02-23T06:07:17;16.80;;;11.77;;
39454;SDS011;25155;41.890;23.446;2024-02-23T06:09:47;17.33;;;12.82;;
39454;SDS011;25155;41.890;23.446;2024-02-23T06:12:15;16.10;;;11.57;;
39454;SDS011;25155;41.890;23.446;2024-02-23T06:14:42;13.95;;;10.00;;
39454;SDS011;25155;41.890;23.446;2024-02-23T06:17:09;14.95;;;10.27;;
39454;SDS011;25155;41.890;23.446;2024-02-23T06:19:36;27.17;;;19.50;;
39454;SDS011;25155;41.890;23.446;2024-02-23T06:22:04;30.20;;;22.23;;
39454;SDS011;25155;41.890;23.446;2024-02-23T06:24:31;30.48;;;21.23;;
39454;SDS011;25155;41.890;23.446;2024-02-23T06:26:58;34.97;;;24.17;;
39454;SDS011;25155;41.890;23.446;2024-02-23T06:29:27;40.60;;;27.60;;
39454;SDS011;25155;41.890;23.446;2024-02-23T06:34:26;23.58;;;17.58;;
39454;SDS011;25155;41.890;23.446;2024-02-23T06:36:54;22.00;;;15.95;;
39454;SDS011;25155;41.890;23.446;2024-02-23T06:39:21;21.73;;;15.52;;
39454;SDS011;25155;41.890;23.446;2024-02-23T06:41:48;18.50;;;13.30;;
39454;SDS011;25155;41.890;23.446;2024-02-23T06:44:15;20.25;;;13.98;;
39454;SDS011;25155;41.890;23.446;2024-02-23T06:46:44;27.98;;;19.15;;
39454;SDS011;25155;41.890;23.446;2024-02-23T06:49:11;35.90;;;24.13;;
39454;SDS011;25155;41.890;23.446;2024-02-23T06:51:38;47.35;;;31.25;;
39454;SDS011;25155;41.890;23.446;2024-02-23T06:54:06;51.60;;;35.95;;
39454;SDS011;25155;41.890;23.446;2024-02-23T06:56:33;51.72;;;34.38;;
39454;SDS011;25155;41.890;23.446;2024-02-23T06:59:01;46.25;;;29.48;;
39454;SDS011;25155;41.890;23.446;2024-02-23T07:01:29;33.67;;;22.27;;
39454;SDS011;25155;41.890;23.446;2024-02-23T07:03:57;40.50;;;29.35;;
39454;SDS011;25155;41.890;23.446;2024-02-23T07:06:25;46.05;;;32.40;;
39454;SDS011;25155;41.890;23.446;2024-02-23T07:08:53;46.30;;;32.08;;
39454;SDS011;25155;41.890;23.446;2024-02-23T07:11:21;52.45;;;36.53;;
39454;SDS011;25155;41.890;23.446;2024-02-23T07:13:48;44.10;;;31.73;;
39454;SDS011;25155;41.890;23.446;2024-02-23T07:16:16;42.85;;;30.25;;
39454;SDS011;25155;41.890;23.446;2024-02-23T07:18:43;37.55;;;26.15;;
39454;SDS011;25155;41.890;23.446;2024-02-23T07:21:12;29.48;;;21.35;;
39454;SDS011;25155;41.890;23.446;2024-02-23T07:23:39;25.85;;;19.88;;
39454;SDS011;25155;41.890;23.446;2024-02-23T07:26:06;26.55;;;19.27;;
39454;SDS011;25155;41.890;23.446;2024-02-23T07:28:33;32.15;;;22.52;;
39454;SDS011;25155;41.890;23.446;2024-02-23T07:31:00;27.15;;;20.20;;
39454;SDS011;25155;41.890;23.446;2024-02-23T07:33:28;22.67;;;17.15;;
39454;SDS011;25155;41.890;23.446;2024-02-23T07:35:55;20.42;;;16.10;;
39454;SDS011;25155;41.890;23.446;2024-02-23T07:38:23;20.17;;;15.38;;
39454;SDS011;25155;41.890;23.446;2024-02-23T07:40:51;16.33;;;12.93;;
39454;SDS011;25155;41.890;23.446;2024-02-23T07:43:19;20.35;;;14.60;;
39454;SDS011;25155;41.890;23.446;2024-02-23T07:45:46;17.85;;;14.05;;
39454;SDS011;25155;41.890;23.446;2024-02-23T07:48:13;17.63;;;13.68;;
39454;SDS011;25155;41.890;23.446;2024-02-23T07:50:43;18.88;;;14.40;;
39454;SDS011;25155;41.890;23.446;2024-02-23T07:53:10;15.93;;;12.02;;
39454;SDS011;25155;41.890;23.446;2024-02-23T07:55:39;16.13;;;12.23;;
39454;SDS011;25155;41.890;23.446;2024-02-23T07:58:06;20.02;;;13.60;;
39454;SDS011;25155;41.890;23.446;2024-02-23T08:00:33;18.52;;;14.27;;
39454;SDS011;25155;41.890;23.446;2024-02-23T08:03:03;17.60;;;13.25;;
39454;SDS011;25155;41.890;23.446;2024-02-23T08:05:31;19.67;;;13.10;;
39454;SDS011;25155;41.890;23.446;2024-02-23T08:07:58;18.15;;;14.20;;
39454;SDS011;25155;41.890;23.446;2024-02-23T08:10:26;15.75;;;11.75;;
39454;SDS011;25155;41.890;23.446;2024-02-23T08:12:54;15.65;;;11.57;;
39454;SDS011;25155;41.890;23.446;2024-02-23T08:15:22;17.50;;;13.38;;
39454;SDS011;25155;41.890;23.446;2024-02-23T08:17:49;15.95;;;11.75;;
39454;SDS011;25155;41.890;23.446;2024-02-23T08:20:16;66.93;;;19.95;;
39454;SDS011;25155;41.890;23.446;2024-02-23T08:22:44;20.30;;;11.85;;
39454;SDS011;25155;41.890;23.446;2024-02-23T08:25:12;15.48;;;9.70;;
39454;SDS011;25155;41.890;23.446;2024-02-23T08:27:40;14.18;;;10.90;;
39454;SDS011;25155;41.890;23.446;2024-02-23T08:30:10;16.33;;;11.80;;
39454;SDS011;25155;41.890;23.446;2024-02-23T08:32:37;15.93;;;12.38;;
39454;SDS011;25155;41.890;23.446;2024-02-23T08:35:05;25.83;;;13.70;;
39454;SDS011;25155;41.890;23.446;2024-02-23T08:37:33;13.25;;;10.05;;
39454;SDS011;25155;41.890;23.446;2024-02-23T08:40:00;13.80;;;10.10;;
39454;SDS011;25155;41.890;23.446;2024-02-23T08:42:28;12.23;;;9.57;;
39454;SDS011;25155;41.890;23.446;2024-02-23T08:44:55;12.60;;;9.85;;
39454;SDS011;25155;41.890;23.446;2024-02-23T08:47:24;11.23;;;8.93;;
39454;SDS011;25155;41.890;23.446;2024-02-23T08:49:53;9.75;;;7.72;;
39454;SDS011;25155;41.890;23.446;2024-02-23T08:52:20;14.65;;;11.10;;
39454;SDS011;25155;41.890;23.446;2024-02-23T08:54:47;17.23;;;10.55;;
39454;SDS011;25155;41.890;23.446;2024-02-23T08:57:15;13.52;;;10.23;;
39454;SDS011;25155;41.890;23.446;2024-02-23T08:59:44;12.77;;;10.02;;
39454;SDS011;25155;41.890;23.446;2024-02-23T09:02:12;17.05;;;10.27;;
39454;SDS011;25155;41.890;23.446;2024-02-23T09:04:40;12.60;;;9.10;;
39454;SDS011;25155;41.890;23.446;2024-02-23T09:07:10;14.53;;;9.73;;
39454;SDS011;25155;41.890;23.446;2024-02-23T09:09:37;9.35;;;7.13;;
39454;SDS011;25155;41.890;23.446;2024-02-23T09:12:04;10.77;;;7.60;;
39454;SDS011;25155;41.890;23.446;2024-02-23T09:14:35;10.73;;;7.88;;
39454;SDS011;25155;41.890;23.446;2024-02-23T09:17:04;7.78;;;5.90;;
39454;SDS011;25155;41.890;23.446;2024-02-23T09:19:31;9.82;;;6.88;;
39454;SDS011;25155;41.890;23.446;2024-02-23T09:21:59;11.18;;;8.85;;
39454;SDS011;25155;41.890;23.446;2024-02-23T09:24:27;10.25;;;8.63;;
39454;SDS011;25155;41.890;23.446;2024-02-23T09:26:54;10.10;;;7.18;;
39454;SDS011;25155;41.890;23.446;2024-02-23T09:29:22;8.57;;;6.57;;
39454;SDS011;25155;41.890;23.446;2024-02-23T09:31:49;8.80;;;6.97;;
39454;SDS011;25155;41.890;23.446;2024-02-23T09:34:16;9.63;;;7.07;;
39454;SDS011;25155;41.890;23.446;2024-02-23T09:36:43;23.65;;;9.73;;
39454;SDS011;25155;41.890;23.446;2024-02-23T09:39:12;9.93;;;7.50;;
39454;SDS011;25155;41.890;23.446;2024-02-23T09:41:39;8.38;;;6.63;;
39454;SDS011;25155;41.890;23.446;2024-02-23T09:44:07;8.77;;;6.90;;
39454;SDS011;25155;41.890;23.446;2024-02-23T09:46:36;8.90;;;6.65;;
39454;SDS011;25155;41.890;23.446;2024-02-23T09:49:04;10.02;;;7.07;;
39454;SDS011;25155;41.890;23.446;2024-02-23T09:51:33;17.65;;;7.95;;
39454;SDS011;25155;41.890;23.446;2024-02-23T09:54:02;10.23;;;7.22;;
39454;SDS011;25155;41.890;23.446;2024-02-23T09:56:30;9.23;;;7.22;;
39454;SDS011;25155;41.890;23.446;2024-02-23T09:58:59;10.13;;;7.50;;
39454;SDS011;25155;41.890;23.446;2024-02-23T10:01:29;9.98;;;7.00;;
39454;SDS011;25155;41.890;23.446;2024-02-23T10:03:59;8.63;;;7.05;;
39454;SDS011;25155;41.890;23.446;2024-02-23T10:08:56;9.65;;;6.72;;
39454;SDS011;25155;41.890;23.446;2024-02-23T10:11:24;9.45;;;7.22;;
39454;SDS011;25155;41.890;23.446;2024-02-23T10:13:53;8.20;;;6.60;;
39454;SDS011;25155;41.890;23.446;2024-02-23T10:16:21;8.73;;;6.78;;
39454;SDS011;25155;41.890;23.446;2024-02-23T10:18:49;9.82;;;7.07;;
39454;SDS011;25155;41.890;23.446;2024-02-23T10:21:16;9.73;;;7.45;;
39454;SDS011;25155;41.890;23.446;2024-02-23T10:23:44;11.07;;;7.72;;
39454;SDS011;25155;41.890;23.446;2024-02-23T10:26:12;9.82;;;7.15;;
39454;SDS011;25155;41.890;23.446;2024-02-23T10:28:44;9.57;;;7.57;;
39454;SDS011;25155;41.890;23.446;2024-02-23T10:31:14;8.07;;;6.15;;
39454;SDS011;25155;41.890;23.446;2024-02-23T10:33:42;9.15;;;6.78;;
39454;SDS011;25155;41.890;23.446;2024-02-23T10:36:13;8.00;;;6.00;;
39454;SDS011;25155;41.890;23.446;2024-02-23T10:38:42;8.23;;;6.00;;
39454;SDS011;25155;41.890;23.446;2024-02-23T10:41:13;8.52;;;6.28;;
39454;SDS011;25155;41.890;23.446;2024-02-23T10:43:44;8.30;;;6.68;;
39454;SDS011;25155;41.890;23.446;2024-02-23T10:46:13;8.43;;;6.32;;
39454;SDS011;25155;41.890;23.446;2024-02-23T10:48:44;7.90;;;6.33;;
39454;SDS011;25155;41.890;23.446;2024-02-23T10:51:13;7.45;;;5.25;;
39454;SDS011;25155;41.890;23.446;2024-02-23T10:53:41;10.43;;;6.78;;
39454;SDS011;25155;41.890;23.446;2024-02-23T10:56:11;7.55;;;6.20;;
39454;SDS011;25155;41.890;23.446;2024-02-23T10:58:39;7.40;;;5.43;;
39454;SDS011;25155;41.890;23.446;2024-02-23T11:01:06;7.75;;;5.72;;
39454;SDS011;25155;41.890;23.446;2024-02-23T11:03:37;7.75;;;5.65;;
39454;SDS011;25155;41.890;23.446;2024-02-23T11:06:07;7.47;;;5.03;;
39454;SDS011;25155;41.890;23.446;2024-02-23T11:08:34;6.53;;;4.80;;
39454;SDS011;25155;41.890;23.446;2024-02-23T11:11:07;7.82;;;5.20;;
39454;SDS011;25155;41.890;23.446;2024-02-23T11:13:35;6.60;;;4.93;;
39454;SDS011;25155;41.890;23.446;2024-02-23T11:16:02;5.72;;;4.25;;
39454;SDS011;25155;41.890;23.446;2024-02-23T11:18:30;7.32;;;4.55;;
39454;SDS011;25155;41.890;23.446;2024-02-23T11:21:00;6.60;;;4.78;;
39454;SDS011;25155;41.890;23.446;2024-02-23T11:26:06;4.97;;;3.65;;
39454;SDS011;25155;41.890;23.446;2024-02-23T11:28:41;5.85;;;4.00;;
39454;SDS011;25155;41.890;23.446;2024-02-23T11:31:12;5.03;;;3.47;;
39454;SDS011;25155;41.890;23.446;2024-02-23T11:33:40;5.25;;;3.70;;
39454;SDS011;25155;41.890;23.446;2024-02-23T11:36:23;4.70;;;3.20;;
39454;SDS011;25155;41.890;23.446;2024-02-23T11:38:54;5.70;;;3.83;;
39454;SDS011;25155;41.890;23.446;2024-02-23T11:41:23;4.95;;;3.58;;
39454;SDS011;25155;41.890;23.446;2024-02-23T11:43:51;14.90;;;5.18;;
39454;SDS011;25155;41.890;23.446;2024-02-23T11:46:21;39.05;;;9.10;;
39454;SDS011;25155;41.890;23.446;2024-02-23T11:48:48;7.47;;;3.97;;
39454;SDS011;25155;41.890;23.446;2024-02-23T11:51:19;6.22;;;4.13;;
39454;SDS011;25155;41.890;23.446;2024-02-23T11:53:48;5.07;;;3.45;;
39454;SDS011;25155;41.890;23.446;2024-02-23T11:56:15;4.50;;;3.10;;
39454;SDS011;25155;41.890;23.446;2024-02-23T11:58:43;9.25;;;4.30;;
39454;SDS011;25155;41.890;23.446;2024-02-23T12:01:10;4.82;;;2.90;;
39454;SDS011;25155;41.890;23.446;2024-02-23T12:03:37;4.93;;;3.22;;
39454;SDS011;25155;41.890;23.446;2024-02-23T12:06:05;3.72;;;2.20;;
39454;SDS011;25155;41.890;23.446;2024-02-23T12:08:34;3.90;;;2.15;;
39454;SDS011;25155;41.890;23.446;2024-02-23T12:11:05;3.10;;;2.08;;
39454;SDS011;25155;41.890;23.446;2024-02-23T12:13:34;2.83;;;2.03;;
39454;SDS011;25155;41.890;23.446;2024-02-23T12:16:01;3.47;;;2.28;;
39454;SDS011;25155;41.890;23.446;2024-02-23T12:18:29;7.97;;;3.95;;
39454;SDS011;25155;41.890;23.446;2024-02-23T12:20:59;4.20;;;3.33;;
39454;SDS011;25155;41.890;23.446;2024-02-23T12:23:28;4.22;;;2.33;;
39454;SDS011;25155;41.890;23.446;2024-02-23T12:26:06;3.30;;;2.10;;
39454;SDS011;25155;41.890;23.446;2024-02-23T12:28:34;3.45;;;2.30;;
39454;SDS011;25155;41.890;23.446;2024-02-23T12:31:02;3.38;;;2.45;;
39454;SDS011;25155;41.890;23.446;2024-02-23T12:33:31;4.40;;;2.63;;
39454;SDS011;25155;41.890;23.446;2024-02-23T12:35:59;3.58;;;2.30;;
39454;SDS011;25155;41.890;23.446;2024-02-23T12:38:27;3.15;;;2.20;;
39454;SDS011;25155;41.890;23.446;2024-02-23T12:40:55;3.50;;;2.25;;
39454;SDS011;25155;41.890;23.446;2024-02-23T12:43:24;3.30;;;2.33;;
39454;SDS011;25155;41.890;23.446;2024-02-23T12:45:53;3.25;;;2.10;;
39454;SDS011;25155;41.890;23.446;2024-02-23T12:48:21;3.22;;;2.33;;
39454;SDS011;25155;41.890;23.446;2024-02-23T12:50:49;3.75;;;2.10;;
39454;SDS011;25155;41.890;23.446;2024-02-23T12:53:30;4.07;;;2.58;;
39454;SDS011;25155;41.890;23.446;2024-02-23T12:56:00;3.63;;;2.22;;
39454;SDS011;25155;41.890;23.446;2024-02-23T12:58:29;3.40;;;2.22;;
39454;SDS011;25155;41.890;23.446;2024-02-23T13:00:57;5.45;;;2.80;;
39454;SDS011;25155;41.890;23.446;2024-02-23T13:03:24;5.00;;;2.80;;
39454;SDS011;25155;41.890;23.446;2024-02-23T13:05:53;3.75;;;2.40;;
39454;SDS011;25155;41.890;23.446;2024-02-23T13:08:20;4.57;;;2.47;;
39454;SDS011;25155;41.890;23.446;2024-02-23T13:10:48;3.47;;;2.40;;
39454;SDS011;25155;41.890;23.446;2024-02-23T13:13:16;3.90;;;2.60;;
39454;SDS011;25155;41.890;23.446;2024-02-23T13:15:45;4.65;;;3.00;;
39454;SDS011;25155;41.890;23.446;2024-02-23T13:18:13;6.18;;;2.67;;
39454;SDS011;25155;41.890;23.446;2024-02-23T13:20:41;3.50;;;2.20;;
39454;SDS011;25155;41.890;23.446;2024-02-23T13:23:09;3.17;;;2.28;;
39454;SDS011;25155;41.890;23.446;2024-02-23T13:25:37;4.18;;;2.70;;
39454;SDS011;25155;41.890;23.446;2024-02-23T13:28:05;4.30;;;2.40;;
39454;SDS011;25155;41.890;23.446;2024-02-23T13:30:33;3.13;;;2.10;;
39454;SDS011;25155;41.890;23.446;2024-02-23T13:33:03;2.95;;;2.20;;
39454;SDS011;25155;41.890;23.446;2024-02-23T13:35:31;3.17;;;2.15;;
39454;SDS011;25155;41.890;23.446;2024-02-23T13:37:59;3.40;;;2.22;;
39454;SDS011;25155;41.890;23.446;2024-02-23T13:40:29;3.85;;;2.63;;
39454;SDS011;25155;41.890;23.446;2024-02-23T13:42:57;3.45;;;2.30;;
39454;SDS011;25155;41.890;23.446;2024-02-23T13:45:25;5.70;;;2.50;;
39454;SDS011;25155;41.890;23.446;2024-02-23T13:47:56;3.97;;;2.25;;
39454;SDS011;25155;41.890;23.446;2024-02-23T13:50:26;3.50;;;2.35;;
39454;SDS011;25155;41.890;23.446;2024-02-23T13:52:54;3.55;;;2.40;;
39454;SDS011;25155;41.890;23.446;2024-02-23T13:55:22;3.30;;;2.20;;
39454;SDS011;25155;41.890;23.446;2024-02-23T13:57:50;4.28;;;2.58;;
39454;SDS011;25155;41.890;23.446;2024-02-23T14:00:17;3.80;;;2.60;;
39454;SDS011;25155;41.890;23.446;2024-02-23T14:02:46;3.60;;;2.40;;
39454;SDS011;25155;41.890;23.446;2024-02-23T14:05:13;3.83;;;2.47;;
39454;SDS011;25155;41.890;23.446;2024-02-23T14:07:44;3.40;;;2.50;;
39454;SDS011;25155;41.890;23.446;2024-02-23T14:10:12;3.00;;;2.10;;
39454;SDS011;25155;41.890;23.446;2024-02-23T14:12:39;3.25;;;2.30;;
39454;SDS011;25155;41.890;23.446;2024-02-23T14:15:08;3.28;;;2.33;;
39454;SDS011;25155;41.890;23.446;2024-02-23T14:17:36;4.07;;;2.40;;
39454;SDS011;25155;41.890;23.446;2024-02-23T14:20:03;4.78;;;2.50;;
39454;SDS011;25155;41.890;23.446;2024-02-23T14:22:32;3.60;;;2.42;;
39454;SDS011;25155;41.890;23.446;2024-02-23T14:25:01;3.40;;;2.30;;
39454;SDS011;25155;41.890;23.446;2024-02-23T14:27:28;3.83;;;2.65;;
39454;SDS011;25155;41.890;23.446;2024-02-23T14:29:55;4.30;;;2.80;;
39454;SDS011;25155;41.890;23.446;2024-02-23T14:32:22;3.85;;;2.70;;